WetterOnline ( https://www.wetteronline.de )

Wetter aktuell Cuxhaven

Aktuelles Wetter: Cuxhaven (12m)

6-stündlich | Neueste Meldungen
Ortszeit Temperatur Wetter
Fr, 18.10. 14:00 16.0° C bewölkt
Fr, 18.10. 8:00 12.0° C bewölkt
Fr, 18.10. 2:00 12.2° C bedeckt
Do, 17.10. 20:00 13.2° C fast wolkenlos
Do, 17.10. 14:00 14.7° C bedeckt
Do, 17.10. 8:00 13.7° C Sprühregen
Do, 17.10. 2:00 13.5° C leichter Regen
Mi, 16.10. 20:00 12.9° C wolkig
Ortszeit Temperatur Wetter
Fr, 18.10. 15:30 10.0° C leichter Regen
Fr, 18.10. 15:10 15.6° C Regen
Fr, 18.10. 15:00 16.3° C bedeckt
Fr, 18.10. 14:50 16.3° C bedeckt
Fr, 18.10. 14:40 16.3° C bedeckt
Fr, 18.10. 14:30 16.3° C bewölkt
Fr, 18.10. 14:00 16.0° C bewölkt
Fr, 18.10. 13:30 15.8° C bewölkt
Fr, 18.10. 13:00 15.0° C bedeckt
Fr, 18.10. 12:30 14.6° C bedeckt
Ortszeit Relative Feuchte Sichtweite
Fr, 18.10. 14:00 79% 50 km
Fr, 18.10. 8:00 97% 6 km
Fr, 18.10. 2:00 98% 18 km
Do, 17.10. 20:00 87% 30 km
Do, 17.10. 14:00 82% 50 km
Do, 17.10. 8:00 98% 3.4 km
Do, 17.10. 2:00 98% 4.3 km
Mi, 16.10. 20:00 87% 23 km
Ortszeit Relative Feuchte Sichtweite
Fr, 18.10. 15:30 88% -
Fr, 18.10. 15:10 80% -
Fr, 18.10. 15:00 75% 60 km
Fr, 18.10. 14:50 75% -
Fr, 18.10. 14:40 76% -
Fr, 18.10. 14:30 78% 60 km
Fr, 18.10. 14:00 79% 50 km
Fr, 18.10. 13:30 80% 35 km
Fr, 18.10. 13:00 84% 30 km
Fr, 18.10. 12:30 87% 30 km
Ortszeit Niederschlagsmenge Niederschlagsart
Fr, 18.10. 14:00 0.1 l/m2 in 6 Std. Regen
Fr, 18.10. 8:00 3 l/m2 in 12 Std. Regen
Fr, 18.10. 2:00 3 l/m2 in 6 Std. Regen
Do, 17.10. 20:00 2 l/m2 in 12 Std. -
Do, 17.10. 14:00 2 l/m2 in 6 Std. Regen
Do, 17.10. 8:00 3 l/m2 in 12 Std. Regen
Do, 17.10. 2:00 0.8 l/m2 in 6 Std. Regen
Mi, 16.10. 20:00 3 l/m2 in 12 Std. -
Ortszeit Niederschlagsmenge Niederschlagsart
Fr, 18.10. 15:30 keine Meldung -
Fr, 18.10. 15:10 keine Meldung -
Fr, 18.10. 15:00 0.0 l/m2 in 1 Std. -
Fr, 18.10. 14:50 keine Meldung -
Fr, 18.10. 14:40 keine Meldung -
Fr, 18.10. 14:30 0.0 l/m2 in 1 Std. -
Fr, 18.10. 14:00 0.0 l/m2 in 1 Std. Regen
Fr, 18.10. 13:30 0.0 l/m2 in 1 Std. -
Fr, 18.10. 13:00 0.0 l/m2 in 1 Std. -
Fr, 18.10. 12:30 0.0 l/m2 in 1 Std. -
Ortszeit Stärke Spitze Richtung
km/h Bft. km/h Grad Sektor
Fr, 18.10. 14:00 15 3 35 160° S
Fr, 18.10. 8:00 11 2 25 160° S
Fr, 18.10. 2:00 9 2 24 130° SO
Do, 17.10. 20:00 7 2 22 150° SO
Do, 17.10. 14:00 7 2 36 220° SW
Do, 17.10. 8:00 17 3 33 200° S
Do, 17.10. 2:00 11 2 25 170° S
Mi, 16.10. 20:00 9 2 31 140° SO
Ortszeit Stärke Spitze Richtung
km/h Bft. km/h Grad Sektor
Fr, 18.10. 15:30 18 3 - 200° S
Fr, 18.10. 15:10 18 3 - 150° SO
Fr, 18.10. 15:00 18 3 36 150° SO
Fr, 18.10. 14:50 18 3 - 150° SO
Fr, 18.10. 14:40 14 3 - 150° SO
Fr, 18.10. 14:30 13 3 28 150° SO
Fr, 18.10. 14:00 15 3 35 160° S
Fr, 18.10. 13:30 13 3 33 160° S
Fr, 18.10. 13:00 15 3 30 170° S
Fr, 18.10. 12:30 13 3 28 170° S
Ortszeit Untergrenze Bedeckung Gattung
total tief tief mittel hoch
Fr, 18.10. 14:00 570 m 7/8 7/8 - - -
Fr, 18.10. 8:00 420 m 7/8 7/8 - - -
Fr, 18.10. 2:00 1320 m 8/8 8/8 - - -
Do, 17.10. 20:00 1800 m 1/8 1/8 - - -
Do, 17.10. 14:00 1170 m 8/8 8/8 - - -
Do, 17.10. 8:00 180 m 7/8 7/8 - - -
Do, 17.10. 2:00 210 m 7/8 8/8 - - -
Mi, 16.10. 20:00 960 m 5/8 7/8 - - -
Ortszeit Bedeckungsgrad in Achtel und Wolkenuntergrenze
Fr, 18.10. 15:30 1(60m) 4(1500m) 8(1800m)
Fr, 18.10. 15:10 2(870m) 8(2700m) 8(4800m)
Fr, 18.10. 15:00 4(840m) 8(2700m) 8(4800m)
Fr, 18.10. 14:50 4(840m) 8(2700m) 8(4800m)
Fr, 18.10. 14:40 6(840m) 8(2100m) 8(5700m)
Fr, 18.10. 14:30 2(660m) 7(930m) 7(1290m)
Fr, 18.10. 14:00 5(570m) 6(720m) 7(1500m)
Fr, 18.10. 13:30 6(540m) 6(1500m) 7(2400m)
Fr, 18.10. 13:00 3(480m) 5(630m) 8(2700m)
Fr, 18.10. 12:30 7(480m) 8(2700m)
Ortszeit Luftdruck NN (hPa) Tendenz (hPa in 3 Std.)
Fr, 18.10. 14:00 1002 - 3,0
Fr, 18.10. 8:00 1006 - 1,6
Fr, 18.10. 2:00 1008 - 1,4
Do, 17.10. 20:00 1010 - 0,2
Do, 17.10. 14:00 1009 + 1,3
Do, 17.10. 8:00 1006 + 0,2
Do, 17.10. 2:00 1006 - 0,8
Mi, 16.10. 20:00 1008 - 0,3
Ortszeit Luftdruck NN (hPa) Tendenz (hPa in 3 Std.)
Fr, 18.10. 15:30 1001 keine Meldung
Fr, 18.10. 15:10 1000 keine Meldung
Fr, 18.10. 15:00 1001 - 3,6
Fr, 18.10. 14:50 1001 keine Meldung
Fr, 18.10. 14:40 1001 keine Meldung
Fr, 18.10. 14:30 1001 - 3,3
Fr, 18.10. 14:00 1002 - 3,0
Fr, 18.10. 13:30 1003 - 2,6
Fr, 18.10. 13:00 1003 - 2,1
Fr, 18.10. 12:30 1004 - 1,7
Ortszeit Schneehöhe (cm)
Fr, 18.10. 14:00 0
Fr, 18.10. 8:00 0
Fr, 18.10. 2:00 0
Do, 17.10. 20:00 0
Do, 17.10. 14:00 0
Do, 17.10. 8:00 0
Do, 17.10. 2:00 0
Mi, 16.10. 20:00 0
Ortszeit Schneehöhe (cm)
Fr, 18.10. 15:30 0
Fr, 18.10. 15:10 0
Fr, 18.10. 15:00 0
Fr, 18.10. 14:50 0
Fr, 18.10. 14:40 0
Fr, 18.10. 14:30 0
Fr, 18.10. 14:00 0
Fr, 18.10. 13:30 0
Fr, 18.10. 13:00 0
Fr, 18.10. 12:30 0
Link zu dieser Seite / Seite empfehlen

Das Wetter in ...